This is the latest recevied weather packets stored in our database for station/object EA4TN. If no packets are shown the sender has not sent any weather packets the latest 10 day(s).
| Time | Temp. | Humidity | Pressure | Rain* | Wind** | Luminosity | Snow |
|---|---|---|---|---|---|---|---|
| 1777598416 | 13.89° C | 71% | 1017.8 hPa | 0 mm | - | - | - |
| 1777584615 | 17.78° C | 55% | 1017.5 hPa | 0 mm | - | - | - |
| 1777579815 | 18.33° C | 50% | 1016.8 hPa | 0 mm | - | - | - |
| 1777577416 | 19.44° C | 47% | 1016 hPa | 0 mm | - | - | - |
| 1777573215 | 22.22° C | 36% | 1015.5 hPa | 0 mm | - | - | - |
| 1777572016 | 22.22° C | 37% | 1015.3 hPa | 0 mm | - | - | - |
| 1777571416 | 22.22° C | 37% | 1015.4 hPa | 0 mm | - | - | - |
| 1777570815 | 22.22° C | 38% | 1015.4 hPa | 0 mm | - | - | - |
| 1777568436 | 23.33° C | 35% | 1015.7 hPa | 0 mm | - | - | - |
| 1777565416 | 22.78° C | 36% | 1015.7 hPa | 0 mm | - | - | - |
| 1777563636 | 21.67° C | 38% | 1015.7 hPa | 0 mm | - | - | - |
| 1777561216 | 22.22° C | 38% | 1016.1 hPa | 0 mm | - | - | - |
| 1777558816 | 21.67° C | 39% | 1016.4 hPa | 0 mm | - | - | - |
| 1777555216 | 21.11° C | 42% | 1016.7 hPa | 0 mm | - | - | - |
| 1777549216 | 18.33° C | 52% | 1017 hPa | 0 mm | - | - | - |
| 1777545036 | 17.78° C | 54% | 1017.1 hPa | 0 mm | - | - | - |
| 1777542016 | 16.67° C | 61% | 1017.2 hPa | 0 mm | - | - | - |
| 1777538417 | 17.22° C | 67% | 1017 hPa | 0 mm | - | - | - |
| 1777527016 | 11.67° C | 90% | 1015.3 hPa | 0 mm | - | - | - |
| 1777526437 | 12.22° C | 89% | 1015.4 hPa | 0 mm | - | - | - |
| 1777518016 | 13.33° C | 86% | 1014.8 hPa | 0 mm | - | - | - |
| 1777509036 | 14.44° C | 85% | 1013.7 hPa | 0 mm | - | - | - |
| 1777504816 | 15° C | 81% | 1013.2 hPa | 0 mm | - | - | - |
| 1777503616 | 15° C | 82% | 1012.7 hPa | 0 mm | - | - | - |
| 1777500016 | 15.56° C | 81% | 1012.1 hPa | 0 mm | - | - | - |
* Rain latest hour (hover to see other rain measurements)
** Current wind speed in m/s (hover to see current wind gust speed)